Latest Weather Observations for Strahan

IDT60801

Issued at 10:05 pm EDT Monday 20 October 2014 (issued every 30 minutes, with the page automatically refreshed every 10 minutes)

About weather observations | Map of weather stations | Latest weather observations for TAS | Other Formats
Station Details ID: 097072 Name: STRAHAN AERODROME Lat: -42.16 Lon: 145.29 Height: 21.0 m
Data from the previous 72 hours. | See also: Recent months at Strahan
Date/Time
EDT
Temp
°C
App
Temp
°C
Dew
Point
Rel
Hum
%
Delta-T
°C
Wind Press
QNH
hPa
Press
MSL
hPa
Rain
since 9 am
mm
Dir
 
Spd
km/h
Gust
km/h
Spd
kts
Gust
kts
20/10:00pm 5.5 2.7 2.2 79 1.3 NE 6 9 3 5 1033.2 1033.2 0.0
20/09:30pm 6.1 3.4 2.4 77 1.5 E 6 9 3 5 1033.3 1033.3 0.0
20/09:00pm 6.6 2.9 2.1 73 1.8 SE 11 17 6 9 1033.0 1033.0 0.0
20/08:30pm 7.6 2.8 2.5 70 2.1 SE 17 24 9 13 1032.7 1032.7 0.0
20/08:00pm 7.9 2.8 2.8 70 2.1 SE 19 26 10 14 1032.5 1032.5 0.0
20/07:30pm 8.8 4.0 2.4 64 2.7 SSE 17 22 9 12 1032.5 1032.5 0.0
20/07:00pm 9.9 4.7 2.3 59 3.2 S 19 26 10 14 1032.4 1032.4 0.0
20/06:30pm 10.8 5.7 2.9 58 3.4 S 19 26 10 14 1032.6 1032.6 0.0
20/06:00pm 11.5 6.2 2.8 55 3.7 S 20 30 11 16 1032.6 1032.6 0.0
20/05:30pm 11.8 6.0 2.3 52 4.1 S 22 32 12 17 1032.8 1032.8 0.0
20/05:00pm 11.9 6.1 2.1 51 4.2 SSW 22 30 12 16 1033.0 1033.0 0.0
20/04:30pm 12.1 5.4 1.7 49 4.4 SSW 26 33 14 18 1033.0 1033.0 0.0
20/04:00pm 12.2 5.6 1.8 49 4.4 SSW 26 37 14 20 1033.0 1033.0 0.0
20/03:30pm 12.4 5.4 2.0 49 4.5 SSW 28 39 15 21 1033.2 1033.2 0.0
20/03:00pm 12.6 6.4 2.2 49 4.5 SSW 24 39 13 21 1033.2 1033.2 0.0
20/02:30pm 12.2 5.5 1.5 48 4.5 SSW 26 35 14 19 1033.5 1033.5 0.0
20/02:00pm 12.4 6.9 0.8 45 4.8 S 19 26 10 14 1033.7 1033.7 0.0
20/01:30pm 12.0 6.4 1.1 47 4.6 S 20 28 11 15 1034.0 1034.0 0.0
20/01:00pm 12.3 7.3 1.6 48 4.5 S 17 26 9 14 1034.3 1034.3 0.0
20/12:30pm 11.7 6.0 0.5 46 4.6 S 20 28 11 15 1034.5 1034.5 0.0
20/12:00pm 11.3 5.9 1.5 51 4.1 S 19 26 10 14 1034.6 1034.6 0.0
20/11:30am 11.1 5.5 1.4 51 4.0 S 20 28 11 15 1034.8 1034.8 0.0
20/11:00am 9.9 3.8 0.5 52 3.8 S 22 30 12 16 1034.9 1034.9 0.0
20/10:30am 9.7 4.1 1.1 55 3.5 SSE 20 28 11 15 1034.8 1034.8 0.0
20/10:00am 9.4 5.6 2.0 60 3.1 SSE 11 17 6 9 1034.9 1034.9 0.0
20/09:30am 8.3 4.7 0.8 59 3.0 SSE 9 15 5 8 1034.6 1034.6 0.0
20/09:00am 7.9 4.4 1.3 63 2.6 SE 9 11 5 6 1034.4 1034.4 7.2
20/08:30am 6.4 3.6 2.1 74 1.8 E 6 9 3 5 1034.0 1034.0 7.2
20/08:00am 4.1 1.9 3.1 93 0.4 NNE 4 6 2 3 1033.7 1033.7 7.2
20/07:30am 1.0 -2.4 -0.3 91 0.5 NE 7 9 4 5 1033.2 1033.2 7.0
20/07:00am 1.1 -2.2 0.4 95 0.3 NE 7 9 4 5 1032.8 1032.8 7.0
20/06:30am 0.5 -3.3 -0.4 94 0.3 NNE 9 9 5 5 1032.3 1032.3 7.0
20/06:00am 0.3 -3.1 -0.4 95 0.2 NNE 7 9 4 5 1032.0 1032.0 7.0
20/05:30am 0.2 -3.0 -0.6 94 0.3 ENE 6 7 3 4 1031.6 1031.6 7.0
20/05:00am 0.8 -2.5 -0.2 93 0.4 ENE 7 9 4 5 1031.1 1031.1 7.0
20/04:30am 1.1 -2.2 -0.1 92 0.4 E 7 13 4 7 1031.1 1031.1 7.0
20/04:00am 1.7 -1.5 0.5 92 0.4 NE 7 9 4 5 1030.7 1030.7 7.0
20/03:30am 1.7 -1.6 0.4 91 0.5 ENE 7 9 4 5 1030.7 1030.7 7.0
20/03:00am 2.4 -0.6 1.1 91 0.5 E 6 7 3 4 1030.8 1030.8 7.0
20/02:30am 2.8 0.2 0.9 87 0.7 ENE 4 7 2 4 1030.6 1030.6 7.0
20/02:00am 4.5 1.0 1.2 79 1.3 SSE 9 15 5 8 1030.2 1030.2 7.0
20/01:30am 4.8 -1.0 2.5 85 0.9 SSW 22 32 12 17 1030.1 1030.1 7.0
20/01:00am 1.9 -1.1 0.7 92 0.4 NE 6 7 3 4 1029.7 1029.7 7.0
20/12:30am 2.7 0.6 1.4 91 0.5 NNW 2 6 1 3 1029.5 1029.5 7.0
20/12:00am 3.8 2.1 1.8 87 0.8 ENE 0 0 0 0 1029.0 1029.0 7.0
 
Date/Time
EDT
Temp
°C
App
Temp
°C
Dew
Point
Rel
Hum
%
Delta-T
°C
Wind Press
QNH
hPa
Press
MSL
hPa
Rain
since 9 am
mm
Dir
 
Spd
km/h
Gust
km/h
Spd
kts
Gust
kts
19/11:30pm 4.0 0.4 0.9 80 1.2 S 9 13 5 7 1028.6 1028.6 7.0
19/11:00pm 4.3 0.0 0.8 78 1.3 SSW 13 19 7 10 1028.4 1028.4 7.0
19/10:30pm 5.5 1.0 2.2 79 1.3 S 15 20 8 11 1028.1 1028.1 7.0
19/10:00pm 6.3 1.0 2.9 79 1.4 S 20 32 11 17 1027.8 1027.8 7.0
19/09:30pm 5.4 0.6 2.4 81 1.2 S 17 26 9 14 1027.3 1027.3 7.0
19/09:00pm 5.9 0.7 2.7 80 1.3 S 19 24 10 13 1026.7 1026.7 7.0
19/08:30pm 6.8 0.8 3.4 79 1.4 S 24 39 13 21 1025.8 1025.8 7.0
19/08:00pm 6.5 1.4 4.0 84 1.1 SSW 20 28 11 15 1025.0 1025.0 7.0
19/07:30pm 6.8 1.9 5.0 88 0.8 SSW 20 33 11 18 1024.3 1024.3 7.0
19/07:00pm 7.4 3.6 5.7 89 0.8 SSW 15 20 8 11 1023.5 1023.5 7.0
19/06:30pm 7.0 0.7 5.8 92 0.5 SSW 28 41 15 22 1023.1 1023.1 7.0
19/06:03pm 6.9 2.7 5.5 91 0.6 SW 17 24 9 13 1022.6 1022.6 7.0
19/06:00pm 7.0 2.4 5.6 91 0.6 SW 19 26 10 14 1022.6 1022.6 7.0
19/05:40pm 7.6 4.0 6.7 94 0.4 WSW 15 26 8 14 1022.1 1022.1 6.0
19/05:30pm 7.8 5.4 7.1 95 0.3 WSW 9 13 5 7 1021.7 1021.7 5.4
19/05:05pm 7.6 4.7 6.7 94 0.4 SW 11 17 6 9 1021.2 1021.2 5.2
19/05:04pm 7.6 4.7 6.7 94 0.4 SW 11 17 6 9 1021.2 1021.2 5.2
19/05:00pm 7.7 4.9 7.0 95 0.3 SW 11 17 6 9 1021.2 1021.2 5.2
19/04:53pm 7.7 4.9 6.8 94 0.4 SW 11 15 6 8 1021.4 1021.4 5.0
19/04:52pm 7.7 4.9 6.8 94 0.4 SW 11 15 6 8 1021.5 1021.5 5.0
19/04:30pm 7.6 3.2 6.5 93 0.5 WSW 19 28 10 15 1021.6 1021.6 4.6
19/04:00pm 7.9 4.0 7.1 95 0.4 SW 17 24 9 13 1021.5 1021.5 4.0
19/03:30pm 7.8 3.4 7.2 96 0.3 SW 20 30 11 16 1021.0 1021.0 2.8
19/03:00pm 7.9 3.7 7.3 96 0.3 SW 19 24 10 13 1020.2 1020.2 2.2
19/02:30pm 8.2 3.8 7.4 95 0.4 SSW 20 30 11 16 1020.1 1020.1 1.6
19/02:00pm 9.1 4.1 8.2 94 0.4 SW 24 35 13 19 1020.3 1020.3 0.6
19/01:30pm 10.8 5.8 8.0 83 1.4 WSW 24 33 13 18 1019.8 1019.8 0.0
19/01:00pm 11.6 7.4 8.1 79 1.7 WSW 20 28 11 15 1019.4 1019.4 0.0
19/12:30pm 11.6 7.6 8.3 80 1.6 WSW 19 24 10 13 1019.8 1019.8 0.0
19/12:15pm 11.1 7.1 8.1 82 1.5 WSW 19 22 10 12 1019.6 1019.6 0.0
19/12:00pm 11.3 8.0 9.4 88 1.0 WSW 17 20 9 11 1019.3 1019.3 0.0
19/11:30am 11.6 7.8 9.0 84 1.3 WNW 19 22 10 12 1019.3 1019.3 0.0
19/11:27am 11.6 7.8 9.0 84 1.3 WNW 19 24 10 13 1019.3 1019.3 0.0
19/11:00am 11.8 8.3 8.6 81 1.6 WNW 17 24 9 13 1019.2 1019.2 0.0
19/10:30am 11.4 8.0 9.0 85 1.2 WNW 17 22 9 12 1019.2 1019.2 0.0
19/10:00am 11.3 7.9 9.2 87 1.0 NW 17 22 9 12 1019.0 1019.0 0.0
19/09:34am 11.0 7.6 9.3 89 0.9 W 17 26 9 14 1019.1 1019.1 0.0
19/09:30am 10.9 6.9 9.2 89 0.8 W 20 28 11 15 1019.4 1019.4 0.0
19/09:09am 11.1 7.3 9.9 92 0.6 WNW 20 32 11 17 1019.0 1019.0 0.0
19/09:00am 11.0 7.2 9.8 92 0.6 WNW 20 32 11 17 1018.9 1018.9 0.2
19/08:30am 11.1 8.1 10.5 96 0.3 WNW 17 20 9 11 1018.4 1018.4 0.2
19/08:00am 11.0 9.5 10.5 97 0.3 NW 9 11 5 6 1017.9 1017.9 0.2
19/07:52am 10.9 9.7 10.4 97 0.3 NW 7 11 4 6 1017.5 1017.5 0.2
19/07:51am 10.8 9.6 10.3 97 0.3 NW 7 11 4 6 1017.4 1017.4 0.2
19/07:30am 10.6 7.8 10.1 97 0.3 W 15 20 8 11 1017.6 1017.6 0.2
19/07:16am 10.7 7.0 10.2 97 0.3 W 20 28 11 15 1017.8 1017.8 0.2
19/07:00am 10.7 7.2 10.2 97 0.3 W 19 28 10 15 1017.9 1017.9 0.2
19/06:43am 10.5 6.9 10.0 97 0.3 W 19 26 10 14 1017.3 1017.3 0.2
19/06:30am 10.7 7.6 10.2 97 0.3 W 17 22 9 12 1017.5 1017.5 0.2
19/06:00am 10.5 6.8 10.0 97 0.3 W 20 26 11 14 1016.8 1016.8 0.2
19/05:30am 11.6 7.5 11.3 98 0.2 NW 24 32 13 17 1016.7 1016.7 0.0
19/05:00am 11.7 8.3 11.2 97 0.3 NW 20 28 11 15 1016.1 1016.1 0.0
19/04:34am 12.1 7.6 11.5 96 0.3 NW 26 33 14 18 1016.1 1016.1 0.0
19/04:30am 12.2 7.3 11.3 94 0.5 WNW 28 37 15 20 1016.1 1016.1 0.0
19/04:28am 12.2 7.3 11.3 94 0.5 WNW 28 37 15 20 1016.1 1016.1 0.0
19/04:21am 12.3 6.6 11.0 92 0.7 WNW 32 39 17 21 1016.1 1016.1 0.0
19/04:11am 12.8 7.0 10.9 88 1.0 WNW 32 41 17 22 1016.1 1016.1 0.0
19/04:00am 13.6 7.6 10.0 79 1.9 NW 32 44 17 24 1015.9 1015.9 0.0
19/03:30am 14.2 7.8 8.4 68 2.9 NW 32 43 17 23 1015.5 1015.6 0.0
19/03:00am 15.2 7.3 7.7 61 3.7 NNW 39 52 21 28 1015.2 1015.3 0.0
19/02:51am 15.2 9.3 7.5 60 3.8 NNW 28 52 15 28 1015.1 1015.2 0.0
19/02:30am 14.6 9.2 6.2 57 4.0 N 24 37 13 20 1015.3 1015.4 0.0
19/02:00am 15.5 9.2 5.7 52 4.7 N 28 41 15 22 1015.0 1015.1 0.0
19/01:44am 15.7 9.4 5.6 51 4.8 N 28 46 15 25 1014.9 1015.0 0.0
19/01:30am 15.9 9.2 5.5 50 5.0 N 30 41 16 22 1014.9 1015.0 0.0
19/01:28am 15.9 9.2 5.5 50 5.0 N 30 48 16 26 1014.9 1015.0 0.0
19/01:00am 16.3 9.1 5.0 47 5.4 N 32 43 17 23 1015.1 1015.2 0.0
19/12:44am 16.1 9.2 4.5 46 5.4 N 30 48 16 26 1015.1 1015.2 0.0
19/12:30am 16.1 9.9 4.2 45 5.5 N 26 41 14 22 1015.1 1015.2 0.0
19/12:00am 15.4 9.9 3.9 46 5.3 N 22 39 12 21 1015.0 1015.1 0.0
 
Date/Time
EDT
Temp
°C
App
Temp
°C
Dew
Point
Rel
Hum
%
Delta-T
°C
Wind Press
QNH
hPa
Press
MSL
hPa
Rain
since 9 am
mm
Dir
 
Spd
km/h
Gust
km/h
Spd
kts
Gust
kts
18/11:30pm 15.8 9.1 3.6 44 5.6 N 28 43 15 23 1015.1 1015.2 0.0
18/11:00pm 15.6 8.9 3.7 45 5.5 N 28 54 15 29 1014.7 1014.8 0.0
18/10:43pm 15.6 8.9 3.4 44 5.6 N 28 46 15 25 1014.8 1014.9 0.0
18/10:30pm 16.1 8.6 3.2 42 5.9 N 32 48 17 26 1014.8 1014.9 0.0
18/10:07pm 15.9 9.1 3.0 42 5.9 N 28 52 15 28 1015.0 1015.1 0.0
18/10:00pm 15.8 9.8 3.3 43 5.7 N 24 35 13 19 1015.0 1015.1 0.0
18/09:30pm 16.1 8.5 2.9 41 6.0 N 32 50 17 27 1016.0 1016.0 0.0
18/09:00pm 15.6 8.6 4.0 46 5.4 N 30 48 16 26 1014.8 1014.9 0.0
18/08:57pm 15.7 9.0 3.8 45 5.5 N 28 48 15 26 1014.9 1015.0 0.0
18/08:30pm 15.0 8.6 5.0 51 4.7 N 28 44 15 24 1015.7 1015.7 0.0
18/08:22pm 14.9 8.4 4.9 51 4.7 N 28 46 15 25 1015.9 1015.9 0.0
18/08:00pm 14.5 8.9 5.3 54 4.3 N 24 37 13 20 1016.3 1016.3 0.0
18/07:49pm 14.6 8.2 5.1 53 4.5 NNE 28 48 15 26 1016.2 1016.2 0.0
18/07:30pm 14.6 7.9 5.4 54 4.3 NNE 30 41 16 22 1016.3 1016.3 0.0
18/07:03pm 14.7 8.5 6.0 56 4.2 NNE 28 50 15 27 1016.7 1016.7 0.0
18/07:00pm 14.6 8.8 6.2 57 4.0 NNE 26 44 14 24 1016.8 1016.8 0.0
18/06:30pm 14.8 10.5 6.9 59 3.9 N 19 32 10 17 1018.0 1018.0 0.0
18/06:00pm 15.4 10.5 6.9 57 4.2 N 22 30 12 16 1018.9 1018.9 0.0
18/05:30pm 15.6 11.7 6.9 56 4.3 N 17 24 9 13 1018.7 1018.7 0.0
18/05:00pm 14.8 10.5 6.9 59 3.8 NNE 19 30 10 16 1018.5 1018.5 0.0
18/04:30pm 14.8 9.5 6.6 58 4.0 NNE 24 37 13 20 1019.2 1019.2 0.0
18/04:00pm 15.1 10.5 6.7 57 4.1 N 20 37 11 20 1019.5 1019.5 0.0
18/03:30pm 16.1 10.3 6.3 52 4.8 N 26 41 14 22 1019.7 1019.7 0.0
18/03:00pm 16.5 11.0 5.8 49 5.2 N 24 39 13 21 1020.0 1020.0 0.0
18/02:30pm 17.0 11.2 6.2 49 5.3 N 26 41 14 22 1020.6 1020.6 0.0
18/02:00pm 16.4 10.4 5.4 48 5.3 N 26 37 14 20 1021.0 1021.0 0.0
18/01:32pm 16.4 9.6 5.1 47 5.4 N 30 48 16 26 1021.4 1021.4 0.0
18/01:30pm 16.4 9.1 4.4 45 5.6 N 32 48 17 26 1021.4 1021.4 0.0
18/01:22pm 16.3 9.8 4.7 46 5.5 N 28 48 15 26 1021.5 1021.5 0.0
18/01:00pm 15.9 9.6 5.5 50 5.0 N 28 39 15 21 1021.6 1021.6 0.0
18/12:30pm 15.5 10.1 4.5 48 5.1 N 22 37 12 20 1021.1 1021.1 0.0
18/12:00pm 14.7 9.0 4.7 51 4.6 N 24 37 13 20 1021.2 1021.2 0.0
18/11:30am 14.7 8.2 4.7 51 4.7 N 28 44 15 24 1021.0 1021.0 0.0
18/11:00am 14.6 8.8 4.6 51 4.6 NNE 24 35 13 19 1020.8 1020.8 0.0
18/10:30am 14.2 7.5 3.4 48 4.9 NNE 28 46 15 25 1021.4 1021.4 0.0
18/10:00am 14.2 6.7 3.7 49 4.7 NNE 32 52 17 28 1022.0 1022.0 0.0
18/09:48am 13.8 7.1 3.9 51 4.5 NNE 28 46 15 25 1022.2 1022.2 0.0
18/09:30am 13.3 6.7 4.2 54 4.1 NNE 28 43 15 23 1022.6 1022.6 0.0
18/09:00am 12.4 7.0 4.4 58 3.6 N 22 35 12 19 1023.2 1023.2 0.2
18/08:30am 11.7 5.9 4.4 61 3.3 NNE 24 37 13 20 1023.3 1023.3 0.2
18/08:00am 10.4 5.0 4.3 66 2.7 NNE 22 35 12 19 1023.5 1023.5 0.2
18/07:30am 9.0 4.6 4.6 74 2.0 NNE 17 28 9 15 1023.8 1023.8 0.2
18/07:00am 6.9 4.3 4.2 83 1.2 N 7 11 4 6 1023.7 1023.7 0.2
18/06:30am 6.2 3.7 3.7 84 1.1 NNW 6 11 3 6 1023.8 1023.8 0.2
18/06:00am 5.5 2.8 3.8 89 0.7 N 7 13 4 7 1023.7 1023.7 0.2
18/05:30am 4.9 2.3 3.4 90 0.6 E 6 7 3 4 1023.9 1023.9 0.2
18/05:00am 4.5 1.0 3.5 93 0.4 NNE 11 13 6 7 1023.8 1023.8 0.2
18/04:30am 3.5 0.2 2.3 92 0.5 NW 9 9 5 5 1024.0 1024.0 0.2
18/04:00am 3.8 0.5 2.6 92 0.5 N 9 11 5 6 1024.0 1024.0 0.2
18/03:30am 4.0 1.1 2.8 92 0.5 N 7 11 4 6 1024.7 1024.7 0.2
18/03:00am 3.4 -0.3 2.1 91 0.5 N 11 13 6 7 1025.4 1025.4 0.2
18/02:30am 3.3 -0.1 2.1 92 0.5 NNE 9 11 5 6 1025.9 1025.9 0.2
18/02:00am 3.7 0.4 2.4 91 0.5 NNE 9 13 5 7 1026.3 1026.3 0.2
18/01:30am 3.6 0.3 2.4 92 0.5 NNE 9 13 5 7 1026.5 1026.5 0.2
18/01:00am 3.6 0.2 2.0 89 0.6 N 9 13 5 7 1026.3 1026.3 0.2
18/12:30am 4.1 1.1 2.3 88 0.7 NNE 7 11 4 6 1026.2 1026.2 0.2
18/12:00am 4.4 1.5 2.4 87 0.8 NE 7 9 4 5 1026.6 1026.6 0.2
 
Date/Time
EDT
Temp
°C
App
Temp
°C
Dew
Point
Rel
Hum
%
Delta-T
°C
Wind Press
QNH
hPa
Press
MSL
hPa
Rain
since 9 am
mm
Dir
 
Spd
km/h
Gust
km/h
Spd
kts
Gust
kts
17/11:30pm 4.6 1.7 2.5 86 0.8 NNE 7 11 4 6 1026.8 1026.8 0.2
17/11:00pm 5.0 2.1 2.7 85 0.9 NNE 7 11 4 6 1026.9 1026.9 0.2
17/10:30pm 5.8 3.3 3.6 86 0.9 NNE 6 7 3 4 1027.3 1027.3 0.2

Other Formats:

Comma delimited format used in spreadsheet applications
http://www.bom.gov.au/fwo/IDT60801/IDT60801.94956.axf

JavaScript Object Notation format (JSON) in row-major order
http://www.bom.gov.au/fwo/IDT60801/IDT60801.94956.json